createdAt,value
2023-02-23T00:01:07.805Z,981
2023-02-23T00:03:09.761Z,981.1
2023-02-23T00:07:12.756Z,981.1
2023-02-23T00:09:14.684Z,981
2023-02-23T00:11:16.708Z,981
2023-02-23T00:13:18.305Z,981
2023-02-23T00:15:19.805Z,981
2023-02-23T00:17:20.990Z,981.1
2023-02-23T00:19:22.435Z,980.9
2023-02-23T00:21:23.993Z,980.9
2023-02-23T00:23:25.635Z,980.9
2023-02-23T00:25:27.576Z,981
2023-02-23T00:27:29.425Z,981.1
2023-02-23T00:29:30.961Z,981
2023-02-23T00:31:32.012Z,980.9
2023-02-23T00:33:33.786Z,981
2023-02-23T00:35:35.566Z,981
2023-02-23T00:39:38.827Z,980.8
2023-02-23T00:41:48.840Z,980.9
2023-02-23T00:43:41.465Z,980.9
2023-02-23T00:45:43.449Z,981
2023-02-23T00:47:44.844Z,981
2023-02-23T00:49:46.573Z,980.9
2023-02-23T00:51:48.079Z,981
2023-02-23T00:53:49.433Z,980.9
2023-02-23T00:55:51.362Z,981
2023-02-23T00:57:53.048Z,980.9
2023-02-23T00:59:54.103Z,980.9
2023-02-23T01:01:55.962Z,980.9
2023-02-23T01:03:57.463Z,980.9
2023-02-23T01:05:59.408Z,980.9
2023-02-23T01:08:01.106Z,980.9
2023-02-23T01:10:02.123Z,981
2023-02-23T01:12:03.452Z,981.1
2023-02-23T01:14:04.461Z,981
2023-02-23T01:16:05.558Z,981.1
2023-02-23T01:18:06.667Z,981
2023-02-23T01:22:09.355Z,981.1
2023-02-23T01:24:10.313Z,981.1
2023-02-23T01:26:11.482Z,981
2023-02-23T01:28:12.871Z,981
2023-02-23T01:30:23.337Z,981
2023-02-23T01:32:15.807Z,981
2023-02-23T01:34:17.139Z,981
2023-02-23T01:38:19.550Z,981
2023-02-23T01:40:21.361Z,980.9
2023-02-23T01:42:22.805Z,980.9
2023-02-23T01:44:24.236Z,980.9
2023-02-23T01:46:25.776Z,980.9
2023-02-23T01:48:27.255Z,980.8
2023-02-23T01:50:28.902Z,980.8
2023-02-23T01:52:30.770Z,980.9
2023-02-23T01:54:32.390Z,980.9
2023-02-23T01:56:34.304Z,980.8
2023-02-23T01:58:35.319Z,980.9
2023-02-23T02:00:36.916Z,980.9
2023-02-23T02:01:20.934Z,980.9
2023-02-23T02:03:21.849Z,980.8
2023-02-23T02:05:23.379Z,980.8
2023-02-23T02:07:24.389Z,980.7
2023-02-23T02:09:25.676Z,980.8
2023-02-23T02:11:27.146Z,980.7
2023-02-23T02:13:28.647Z,980.7
2023-02-23T02:15:30.581Z,980.8
2023-02-23T02:17:32.109Z,980.7
2023-02-23T02:19:33.102Z,980.8
2023-02-23T02:21:34.546Z,980.7
2023-02-23T02:23:35.702Z,980.7
2023-02-23T02:25:36.812Z,980.7
2023-02-23T02:27:38.209Z,980.7
2023-02-23T02:31:41.536Z,980.7
2023-02-23T02:33:43.294Z,980.7
2023-02-23T02:35:44.491Z,980.6
2023-02-23T02:37:46.131Z,980.7
2023-02-23T02:39:47.337Z,980.7
2023-02-23T02:41:48.598Z,980.6
2023-02-23T02:43:49.788Z,980.7
2023-02-23T02:45:51.664Z,980.7
2023-02-23T02:47:53.307Z,980.7
2023-02-23T02:49:54.532Z,980.7
2023-02-23T02:51:56.032Z,980.6
2023-02-23T02:53:57.493Z,980.7
2023-02-23T02:55:59.069Z,980.7
2023-02-23T02:58:00.134Z,980.7
2023-02-23T03:00:01.789Z,980.6
2023-02-23T03:02:03.613Z,980.7
2023-02-23T03:04:05.301Z,980.7
2023-02-23T03:06:06.231Z,980.7
2023-02-23T03:08:07.847Z,980.7
2023-02-23T03:10:09.370Z,980.7
2023-02-23T03:12:10.984Z,980.6
2023-02-23T03:14:12.530Z,980.7
2023-02-23T03:16:14.070Z,980.7
2023-02-23T03:18:15.179Z,980.6
2023-02-23T03:20:16.970Z,980.6
2023-02-23T03:22:18.578Z,980.7
2023-02-23T03:24:20.356Z,980.7
2023-02-23T03:26:21.862Z,980.6
2023-02-23T03:28:23.285Z,980.7
2023-02-23T03:30:24.959Z,980.7
2023-02-23T03:32:26.359Z,980.7
2023-02-23T03:34:27.956Z,980.7
2023-02-23T03:36:29.662Z,980.7
2023-02-23T03:40:32.383Z,980.7
2023-02-23T03:42:33.538Z,980.8
2023-02-23T03:44:35.226Z,980.8
2023-02-23T03:46:36.594Z,980.7
2023-02-23T03:50:39.278Z,980.8
2023-02-23T03:52:40.591Z,980.8
2023-02-23T03:56:43.455Z,980.8
2023-02-23T03:58:44.793Z,980.8
2023-02-23T04:00:46.142Z,980.8
2023-02-23T04:02:47.310Z,980.9
2023-02-23T04:04:49.087Z,980.8
2023-02-23T04:06:50.412Z,980.8
2023-02-23T04:08:52.259Z,980.8
2023-02-23T04:10:53.547Z,980.8
2023-02-23T04:12:54.501Z,980.9
2023-02-23T04:14:55.795Z,980.8
2023-02-23T04:16:57.695Z,980.8
2023-02-23T04:18:58.676Z,980.8
2023-02-23T04:21:00.229Z,980.8
2023-02-23T04:23:02.059Z,980.7
2023-02-23T04:25:03.926Z,980.8
2023-02-23T04:27:05.179Z,980.8
2023-02-23T04:29:06.983Z,980.9
2023-02-23T04:31:08.365Z,980.8
2023-02-23T04:33:09.914Z,980.8
2023-02-23T04:35:10.902Z,980.8
2023-02-23T04:37:11.952Z,980.8
2023-02-23T04:39:13.839Z,980.8
2023-02-23T04:41:15.654Z,980.8
2023-02-23T04:43:16.993Z,980.9
2023-02-23T04:45:18.005Z,980.8
2023-02-23T04:47:19.321Z,980.7
2023-02-23T04:49:20.764Z,980.8
2023-02-23T04:51:22.424Z,980.8
2023-02-23T04:55:24.441Z,980.9
2023-02-23T04:57:25.764Z,980.8
2023-02-23T04:59:27.210Z,980.9
2023-02-23T05:01:28.769Z,980.8
2023-02-23T05:03:29.968Z,980.9
2023-02-23T05:05:31.705Z,980.8
2023-02-23T05:07:33.476Z,980.8
2023-02-23T05:09:34.994Z,980.8
2023-02-23T05:11:36.431Z,980.8
2023-02-23T05:13:38.052Z,980.8
2023-02-23T05:15:39.777Z,980.8
2023-02-23T05:17:41.564Z,980.8
2023-02-23T05:19:42.581Z,980.8
2023-02-23T05:21:43.948Z,980.8
2023-02-23T05:23:45.120Z,980.9
2023-02-23T05:25:46.439Z,980.8
2023-02-23T05:27:47.567Z,980.8
2023-02-23T05:29:48.835Z,980.8
2023-02-23T05:31:50.364Z,980.8
2023-02-23T05:33:52.094Z,980.8
2023-02-23T05:35:53.886Z,980.8
2023-02-23T05:37:55.319Z,980.8
2023-02-23T05:39:56.447Z,980.7
2023-02-23T05:41:57.662Z,980.8
2023-02-23T05:43:58.656Z,980.8
2023-02-23T05:46:00.116Z,980.8
2023-02-23T05:48:01.499Z,980.8
2023-02-23T05:50:02.855Z,980.8
2023-02-23T05:52:04.153Z,980.8
2023-02-23T05:54:05.314Z,980.7
2023-02-23T05:56:06.415Z,980.9
2023-02-23T05:58:08.207Z,980.8
2023-02-23T06:00:09.156Z,980.7
2023-02-23T06:02:10.545Z,980.8
2023-02-23T06:04:11.838Z,980.8
2023-02-23T06:06:13.401Z,980.8
2023-02-23T06:08:14.538Z,980.8
2023-02-23T06:10:15.743Z,980.8
2023-02-23T06:12:17.265Z,980.9
2023-02-23T06:14:18.395Z,980.9
2023-02-23T06:16:19.619Z,981
2023-02-23T06:20:22.218Z,981
2023-02-23T06:22:23.829Z,980.9
2023-02-23T06:24:25.495Z,981
2023-02-23T06:26:27.416Z,981
2023-02-23T06:28:28.820Z,981.1
2023-02-23T06:30:30.331Z,981
2023-02-23T06:32:31.387Z,981.1
2023-02-23T06:34:32.404Z,981.1
2023-02-23T06:36:33.932Z,981
2023-02-23T06:38:35.634Z,981.1
2023-02-23T06:40:37.530Z,981.1
2023-02-23T06:42:38.577Z,981.1
2023-02-23T06:44:39.597Z,981
2023-02-23T06:46:40.613Z,981.2
2023-02-23T06:48:41.637Z,981.2
2023-02-23T06:50:42.762Z,981.2
2023-02-23T06:52:43.761Z,981.1
2023-02-23T06:54:45.114Z,981.3
2023-02-23T06:56:46.661Z,981.2
2023-02-23T06:58:48.302Z,981.2
2023-02-23T07:00:49.896Z,981.2
2023-02-23T07:02:51.037Z,981.3
2023-02-23T07:04:52.423Z,981.3
2023-02-23T07:06:54.013Z,981.3
2023-02-23T07:08:55.274Z,981.2
2023-02-23T07:10:56.372Z,981.2
2023-02-23T07:12:57.809Z,981.3
2023-02-23T07:14:59.092Z,981.4
2023-02-23T07:17:00.868Z,981.4
2023-02-23T07:19:01.944Z,981.4
2023-02-23T07:21:03.287Z,981.4
2023-02-23T07:23:04.677Z,981.4
2023-02-23T07:25:06.238Z,981.4
2023-02-23T07:27:07.848Z,981.4
2023-02-23T07:29:09.147Z,981.4
2023-02-23T07:31:10.188Z,981.4
2023-02-23T07:33:11.716Z,981.5
2023-02-23T07:35:13.330Z,981.4
2023-02-23T07:37:14.976Z,981.3
2023-02-23T07:39:16.064Z,981.5
2023-02-23T07:41:17.212Z,981.4
2023-02-23T07:43:18.457Z,981.4
2023-02-23T07:45:19.963Z,981.4
2023-02-23T07:47:21.625Z,981.5
2023-02-23T07:49:22.797Z,981.3
2023-02-23T07:51:24.316Z,981.5
2023-02-23T07:53:25.840Z,981.4
2023-02-23T07:55:27.055Z,981.4
2023-02-23T07:57:28.126Z,981.4
2023-02-23T08:01:31.543Z,981.4
2023-02-23T08:03:33.331Z,981.4
2023-02-23T08:05:34.666Z,981.5
2023-02-23T08:07:36.304Z,981.5
2023-02-23T08:09:37.678Z,981.3
2023-02-23T08:11:38.691Z,981.5
2023-02-23T08:13:40.583Z,981.5
2023-02-23T08:15:41.550Z,981.4
2023-02-23T08:17:42.845Z,981.5
2023-02-23T08:19:44.080Z,981.5
2023-02-23T08:21:45.743Z,981.5
2023-02-23T08:23:47.003Z,981.5
2023-02-23T08:25:48.157Z,981.5
2023-02-23T08:27:49.683Z,981.5
2023-02-23T08:29:51.131Z,981.6
2023-02-23T08:31:52.212Z,981.6
2023-02-23T08:33:53.681Z,981.6
2023-02-23T08:35:55.264Z,981.6
2023-02-23T08:37:56.220Z,981.6
2023-02-23T08:39:57.847Z,981.6
2023-02-23T08:41:59.011Z,981.6
2023-02-23T08:43:59.971Z,981.6
2023-02-23T08:46:01.025Z,981.6
2023-02-23T08:48:46.361Z,981.6
2023-02-23T08:50:47.857Z,981.5
2023-02-23T08:52:49.557Z,981.6
2023-02-23T08:54:50.984Z,981.6
2023-02-23T08:56:52.229Z,981.6
2023-02-23T08:58:53.374Z,981.5
2023-02-23T09:00:54.855Z,981.6
2023-02-23T09:02:56.337Z,981.6
2023-02-23T09:04:58.214Z,981.6
2023-02-23T09:06:59.472Z,981.7
2023-02-23T09:09:00.898Z,981.6
2023-02-23T09:11:01.968Z,981.6
2023-02-23T09:13:03.208Z,981.6
2023-02-23T09:15:04.726Z,981.8
2023-02-23T09:17:06.075Z,981.7
2023-02-23T09:21:08.345Z,981.8
2023-02-23T09:23:09.661Z,981.7
2023-02-23T09:25:11.324Z,981.7
2023-02-23T09:27:12.500Z,981.7
2023-02-23T09:31:15.500Z,981.8
2023-02-23T09:33:24.538Z,981.7
2023-02-23T09:37:18.718Z,981.7
2023-02-23T09:39:26.463Z,981.7
2023-02-23T09:41:21.640Z,981.7
2023-02-23T09:43:22.834Z,981.8
2023-02-23T09:45:24.015Z,981.8
2023-02-23T09:47:25.622Z,981.8
2023-02-23T09:49:26.551Z,981.8
2023-02-23T09:51:27.877Z,981.7
2023-02-23T09:53:29.102Z,981.7
2023-02-23T09:55:30.538Z,981.8
2023-02-23T09:57:32.259Z,981.8
2023-02-23T09:59:33.677Z,981.7
2023-02-23T10:01:35.222Z,981.8
2023-02-23T10:03:36.377Z,981.7
2023-02-23T10:05:37.620Z,981.8
2023-02-23T10:07:38.746Z,981.8
2023-02-23T10:09:40.480Z,981.7
2023-02-23T10:11:42.022Z,981.7
2023-02-23T10:13:43.603Z,981.8
2023-02-23T10:15:45.030Z,981.7
2023-02-23T10:17:46.542Z,981.7
2023-02-23T10:19:47.465Z,981.8
2023-02-23T10:21:48.903Z,981.7
2023-02-23T10:23:50.101Z,981.7
2023-02-23T10:25:51.242Z,981.8
2023-02-23T10:27:52.683Z,981.7
2023-02-23T10:29:53.946Z,981.8
2023-02-23T10:31:55.509Z,981.8
2023-02-23T10:36:11.302Z,981.8
2023-02-23T10:37:59.885Z,981.8
2023-02-23T10:40:00.817Z,981.8
2023-02-23T10:42:01.750Z,981.8
2023-02-23T10:44:15.594Z,981.9
2023-02-23T10:46:04.628Z,981.8
2023-02-23T10:48:05.583Z,981.8
2023-02-23T10:50:06.748Z,981.9
2023-02-23T10:52:07.845Z,981.9
2023-02-23T10:54:09.636Z,982
2023-02-23T10:56:10.830Z,981.9
2023-02-23T10:58:11.762Z,981.9
2023-02-23T11:02:13.803Z,981.9
2023-02-23T11:04:15.451Z,981.9
2023-02-23T11:06:16.357Z,981.9
2023-02-23T11:08:18.396Z,981.9
2023-02-23T11:12:20.670Z,981.9
2023-02-23T11:14:21.610Z,981.9
2023-02-23T11:18:23.935Z,981.8
2023-02-23T11:20:25.447Z,981.9
2023-02-23T11:22:26.896Z,981.9
2023-02-23T11:24:27.915Z,981.9
2023-02-23T11:26:29.368Z,981.8
2023-02-23T11:28:30.821Z,981.8
2023-02-23T11:30:32.090Z,981.9
2023-02-23T11:32:33.853Z,981.8
2023-02-23T11:34:35.110Z,981.8
2023-02-23T11:36:36.232Z,981.7
2023-02-23T11:38:37.627Z,981.6
2023-02-23T11:40:39.080Z,981.7
2023-02-23T11:42:40.760Z,981.7
2023-02-23T11:44:41.684Z,981.7
2023-02-23T11:46:43.236Z,981.6
2023-02-23T11:48:44.227Z,981.7
2023-02-23T11:50:45.743Z,981.7
2023-02-23T11:52:46.825Z,981.7
2023-02-23T11:54:48.376Z,981.6
2023-02-23T11:56:49.326Z,981.5
2023-02-23T11:58:50.839Z,981.7
2023-02-23T12:00:52.577Z,981.6
2023-02-23T12:02:53.553Z,981.7
2023-02-23T12:04:54.554Z,981.6
2023-02-23T12:06:56.072Z,981.7
2023-02-23T12:08:57.211Z,981.6
2023-02-23T12:10:58.760Z,981.6
2023-02-23T12:12:59.980Z,981.6
2023-02-23T12:17:04.218Z,981.6
2023-02-23T12:19:03.912Z,981.6
2023-02-23T12:21:05.338Z,981.6
2023-02-23T12:23:06.393Z,981.6
2023-02-23T12:25:07.940Z,981.6
2023-02-23T12:27:09.463Z,981.6
2023-02-23T12:29:10.435Z,981.5
2023-02-23T12:31:11.814Z,981.5
2023-02-23T12:33:13.441Z,981.5
2023-02-23T12:35:14.926Z,981.4
2023-02-23T12:37:16.646Z,981.4
2023-02-23T12:39:18.204Z,981.4
2023-02-23T12:41:19.827Z,981.4
2023-02-23T12:43:21.693Z,981.5
2023-02-23T12:45:23.368Z,981.4
2023-02-23T12:47:24.341Z,981.4
2023-02-23T12:49:26.238Z,981.4
2023-02-23T12:51:27.812Z,981.4
2023-02-23T12:53:29.291Z,981.4
2023-02-23T12:55:30.695Z,981.4
2023-02-23T12:57:32.137Z,981.3
2023-02-23T12:59:33.649Z,981.3
2023-02-23T13:01:35.598Z,981.3
2023-02-23T13:03:36.905Z,981.3
2023-02-23T13:05:38.641Z,981.3
2023-02-23T13:07:40.544Z,981.2
2023-02-23T13:09:41.744Z,981.2
2023-02-23T13:11:43.470Z,981.1
2023-02-23T13:15:46.663Z,981
2023-02-23T13:17:47.654Z,981.1
2023-02-23T13:19:49.381Z,981
2023-02-23T13:21:50.681Z,981
2023-02-23T13:25:53.975Z,981
2023-02-23T13:27:55.653Z,981
2023-02-23T13:29:56.501Z,981.1
2023-02-23T13:31:58.161Z,981
2023-02-23T13:33:59.025Z,980.9
2023-02-23T13:36:00.444Z,981.1
2023-02-23T13:38:02.237Z,981
2023-02-23T13:42:05.239Z,981
2023-02-23T13:44:06.495Z,981
2023-02-23T13:46:07.770Z,980.9
2023-02-23T13:48:09.894Z,981
2023-02-23T13:50:11.275Z,980.9
2023-02-23T13:52:12.559Z,981
2023-02-23T13:58:15.709Z,981
2023-02-23T14:00:17.538Z,980.9
2023-02-23T14:02:18.399Z,980.9
2023-02-23T14:04:19.069Z,980.9
2023-02-23T14:08:21.735Z,980.8
2023-02-23T14:10:22.806Z,980.9
2023-02-23T14:12:24.474Z,980.9
2023-02-23T14:14:25.905Z,980.8
2023-02-23T14:16:27.403Z,980.9
2023-02-23T14:18:28.358Z,980.8
2023-02-23T14:20:30.313Z,980.8
2023-02-23T14:22:30.761Z,980.8
2023-02-23T14:24:31.579Z,980.8
2023-02-23T14:26:32.639Z,980.8
2023-02-23T14:28:34.444Z,980.9
2023-02-23T14:30:36.214Z,980.8
2023-02-23T14:32:37.414Z,980.8
2023-02-23T14:34:38.362Z,980.8
2023-02-23T14:36:39.539Z,980.8
2023-02-23T14:38:47.752Z,980.8
2023-02-23T14:40:41.615Z,980.8
2023-02-23T14:42:42.986Z,980.7
2023-02-23T14:44:44.254Z,980.8
2023-02-23T14:46:45.984Z,980.7
2023-02-23T14:48:47.402Z,980.7
2023-02-23T14:50:48.967Z,980.7
2023-02-23T14:52:49.900Z,980.7
2023-02-23T14:54:50.743Z,980.8
2023-02-23T14:56:51.541Z,980.7
2023-02-23T14:58:52.883Z,980.8
2023-02-23T15:00:54.428Z,980.7
2023-02-23T15:02:55.968Z,980.8
2023-02-23T15:04:57.135Z,980.8
2023-02-23T15:06:58.550Z,980.8
2023-02-23T15:08:59.545Z,980.8
2023-02-23T15:11:01.002Z,980.8
2023-02-23T15:13:02.768Z,980.9
2023-02-23T15:15:04.403Z,980.9
2023-02-23T15:17:05.961Z,980.9
2023-02-23T15:19:07.074Z,980.8
2023-02-23T15:21:08.828Z,980.9
2023-02-23T15:23:10.723Z,980.9
2023-02-23T15:25:12.040Z,980.9
2023-02-23T15:27:13.075Z,980.8
2023-02-23T15:29:14.395Z,980.9
2023-02-23T15:31:15.598Z,980.9
2023-02-23T15:34:00.805Z,980.8
2023-02-23T15:36:02.619Z,980.9
2023-02-23T15:38:11.082Z,980.9
2023-02-23T15:40:05.617Z,980.9
2023-02-23T15:44:07.827Z,981
2023-02-23T15:46:09.442Z,981
2023-02-23T15:50:12.794Z,981
2023-02-23T15:52:14.797Z,980.9
2023-02-23T15:54:16.473Z,981
2023-02-23T15:56:18.247Z,981
2023-02-23T15:58:20.011Z,981.1
2023-02-23T16:00:21.373Z,981
2023-02-23T16:02:28.837Z,981
2023-02-23T16:04:23.418Z,981
2023-02-23T16:06:24.324Z,981
2023-02-23T16:08:25.689Z,981.1
2023-02-23T16:10:27.092Z,981.1
2023-02-23T16:12:28.455Z,981
2023-02-23T16:14:30.021Z,981.1
2023-02-23T16:16:31.740Z,981
2023-02-23T16:18:36.125Z,981
2023-02-23T16:20:34.422Z,981
2023-02-23T16:22:38.699Z,981.1
2023-02-23T16:24:37.142Z,981.1
2023-02-23T16:26:38.235Z,981
2023-02-23T16:28:39.877Z,981
2023-02-23T16:30:41.362Z,981.1
2023-02-23T16:32:42.635Z,981
2023-02-23T16:34:43.660Z,981.1
2023-02-23T16:36:44.678Z,981.1
2023-02-23T16:38:46.174Z,981.1
2023-02-23T16:40:47.929Z,981
2023-02-23T16:42:48.930Z,981
2023-02-23T16:44:50.120Z,981
2023-02-23T16:48:52.905Z,980.9
2023-02-23T16:50:54.033Z,981
2023-02-23T16:52:55.693Z,981.1
2023-02-23T16:54:57.629Z,981
2023-02-23T16:56:59.157Z,981.1
2023-02-23T16:59:00.810Z,981.1
2023-02-23T17:01:07.086Z,981.1
2023-02-23T17:03:03.454Z,981.1
2023-02-23T17:05:05.249Z,981.2
2023-02-23T17:07:06.235Z,981.2
2023-02-23T17:09:08.151Z,981.1
2023-02-23T17:11:09.936Z,981.1
2023-02-23T17:13:11.800Z,981.1
2023-02-23T17:15:13.708Z,981.2
2023-02-23T17:17:15.412Z,981.1
2023-02-23T17:19:16.203Z,981.2
2023-02-23T17:21:17.611Z,981.2
2023-02-23T17:23:18.526Z,981.2
2023-02-23T17:25:19.658Z,981.2
2023-02-23T17:27:21.242Z,981.1
2023-02-23T17:31:26.964Z,981.1
2023-02-23T17:33:25.604Z,981.1
2023-02-23T17:35:26.606Z,981.1
2023-02-23T17:37:28.348Z,981.1
2023-02-23T17:39:29.552Z,981.2
2023-02-23T17:41:31.086Z,981.2
2023-02-23T17:43:39.831Z,981.2
2023-02-23T17:45:33.884Z,981.1
2023-02-23T17:47:35.603Z,981.2
2023-02-23T17:49:36.693Z,981.2
2023-02-23T17:51:37.656Z,981.2
2023-02-23T17:53:38.724Z,981.1
2023-02-23T17:57:41.026Z,981.1
2023-02-23T17:59:44.071Z,981.3
2023-02-23T18:01:43.764Z,981.2
2023-02-23T18:03:45.077Z,981.3
2023-02-23T18:07:48.931Z,981.3
2023-02-23T18:09:50.172Z,981.3
2023-02-23T18:11:51.485Z,981.3
2023-02-23T18:13:53.198Z,981.2
2023-02-23T18:15:54.148Z,981.3
2023-02-23T18:17:56.049Z,981.3
2023-02-23T18:19:57.585Z,981.2
2023-02-23T18:21:59.375Z,981.2
2023-02-23T18:24:00.706Z,981.2
2023-02-23T18:26:02.459Z,981.2
2023-02-23T18:28:03.429Z,981.2
2023-02-23T18:30:05.207Z,981.3
2023-02-23T18:32:07.053Z,981.3
2023-02-23T18:34:08.293Z,981.3
2023-02-23T18:36:10.060Z,981.2
2023-02-23T18:40:13.035Z,981.1
2023-02-23T18:42:18.154Z,981.2
2023-02-23T18:44:15.604Z,981.1
2023-02-23T18:46:17.485Z,981.1
2023-02-23T18:50:20.173Z,981.2
2023-02-23T18:52:21.630Z,981.1
2023-02-23T18:56:24.237Z,981.1
2023-02-23T18:58:25.837Z,981.1
2023-02-23T19:00:27.055Z,981.2
2023-02-23T19:02:28.303Z,981.1
2023-02-23T19:04:29.581Z,981.1
2023-02-23T19:06:31.093Z,981.1
2023-02-23T19:08:32.076Z,981.1
2023-02-23T19:10:33.202Z,981.1
2023-02-23T19:12:34.970Z,981.1
2023-02-23T19:14:48.695Z,981
2023-02-23T19:16:37.796Z,981
2023-02-23T19:18:38.869Z,981.1
2023-02-23T19:20:40.739Z,981.1
2023-02-23T19:22:42.700Z,981.1
2023-02-23T19:24:44.529Z,981
2023-02-23T19:26:45.989Z,981
2023-02-23T19:28:47.772Z,981.1
2023-02-23T19:30:49.344Z,981.1
2023-02-23T19:32:50.612Z,981
2023-02-23T19:34:51.930Z,981.1
2023-02-23T19:38:54.296Z,981.1
2023-02-23T19:40:55.727Z,981.1
2023-02-23T19:42:57.271Z,981.1
2023-02-23T19:44:58.350Z,981.1
2023-02-23T19:46:59.680Z,981.1
2023-02-23T19:49:00.992Z,981.1
2023-02-23T19:51:02.497Z,981.1
2023-02-23T19:55:14.026Z,981
2023-02-23T19:57:06.882Z,981
2023-02-23T19:59:07.925Z,981
2023-02-23T20:01:09.481Z,981.1
2023-02-23T20:03:10.670Z,981.1
2023-02-23T20:05:12.177Z,981.1
2023-02-23T20:07:13.804Z,981.1
2023-02-23T20:09:15.421Z,981.1
2023-02-23T20:11:17.320Z,981.1
2023-02-23T20:13:18.484Z,981.1
2023-02-23T20:15:20.266Z,981.1
2023-02-23T20:17:21.605Z,981.1
2023-02-23T20:19:22.556Z,981
2023-02-23T20:21:24.273Z,981
2023-02-23T20:23:25.112Z,981.1
2023-02-23T20:25:26.703Z,981.1
2023-02-23T20:27:27.888Z,981.1
2023-02-23T20:29:29.709Z,981.1
2023-02-23T20:31:30.709Z,981.1
2023-02-23T20:33:32.344Z,981.1
2023-02-23T20:35:33.900Z,981.1
2023-02-23T20:37:35.656Z,981
2023-02-23T20:39:36.788Z,981.1
2023-02-23T20:41:37.857Z,981.2
2023-02-23T20:43:39.574Z,981.1
2023-02-23T20:45:40.629Z,981.1
2023-02-23T20:47:42.171Z,981.1
2023-02-23T20:49:49.328Z,981.1
2023-02-23T20:51:45.765Z,981.2
2023-02-23T20:53:47.548Z,981.2
2023-02-23T20:55:49.060Z,981.1
2023-02-23T20:57:50.324Z,981.2
2023-02-23T20:59:52.054Z,981.2
2023-02-23T21:03:54.536Z,981.2
2023-02-23T21:05:57.165Z,981.2
2023-02-23T21:07:57.648Z,981.1
2023-02-23T21:09:59.197Z,981.1
2023-02-23T21:14:01.702Z,981.2
2023-02-23T21:16:02.977Z,981.2
2023-02-23T21:18:03.905Z,981.1
2023-02-23T21:20:05.063Z,981
2023-02-23T21:22:06.720Z,981.1
2023-02-23T21:24:08.233Z,981.1
2023-02-23T21:26:18.785Z,981
2023-02-23T21:28:11.064Z,981.1
2023-02-23T21:30:12.248Z,981.1
2023-02-23T21:32:20.497Z,981
2023-02-23T21:34:15.198Z,981
2023-02-23T21:36:17.039Z,981
2023-02-23T21:38:18.048Z,980.9
2023-02-23T21:40:19.188Z,980.9
2023-02-23T21:42:22.953Z,980.9
2023-02-23T21:44:22.757Z,980.9
2023-02-23T21:46:23.953Z,980.9
2023-02-23T21:48:26.161Z,980.9
2023-02-23T21:50:27.070Z,980.9
2023-02-23T21:52:28.421Z,980.9
2023-02-23T21:54:29.799Z,980.8
2023-02-23T21:56:30.725Z,980.9
2023-02-23T21:58:32.197Z,980.9
2023-02-23T22:02:35.640Z,980.9
2023-02-23T22:04:37.419Z,980.9
2023-02-23T22:06:38.829Z,980.9
2023-02-23T22:08:40.120Z,980.9
2023-02-23T22:10:42.237Z,980.8
2023-02-23T22:12:43.478Z,980.9
2023-02-23T22:14:51.320Z,980.9
2023-02-23T22:16:46.449Z,980.9
2023-02-23T22:19:31.800Z,981
2023-02-23T22:21:33.219Z,980.9
2023-02-23T22:23:35.142Z,981
2023-02-23T22:25:42.309Z,980.8
2023-02-23T22:27:38.228Z,980.8
2023-02-23T22:29:39.870Z,980.8
2023-02-23T22:31:41.342Z,980.9
2023-02-23T22:33:42.771Z,980.9
2023-02-23T22:35:43.808Z,980.9
2023-02-23T22:37:48.190Z,980.9
2023-02-23T22:39:46.705Z,980.8
2023-02-23T22:41:48.417Z,980.7
2023-02-23T22:43:49.387Z,980.7
2023-02-23T22:45:50.995Z,980.8
2023-02-23T22:47:51.966Z,980.9
2023-02-23T22:49:53.065Z,980.9
2023-02-23T22:51:54.543Z,980.9
2023-02-23T22:55:57.659Z,980.8
2023-02-23T22:57:58.684Z,980.9
2023-02-23T23:00:02.798Z,980.7
2023-02-23T23:02:02.399Z,980.8
2023-02-23T23:04:03.904Z,980.8
2023-02-23T23:06:05.341Z,980.8
2023-02-23T23:08:09.775Z,980.8
2023-02-23T23:10:08.815Z,980.8
2023-02-23T23:12:10.537Z,980.9
2023-02-23T23:14:12.384Z,980.8
2023-02-23T23:16:25.486Z,980.8
2023-02-23T23:18:15.108Z,980.7
2023-02-23T23:20:16.896Z,980.8
2023-02-23T23:22:18.365Z,980.7
2023-02-23T23:24:19.384Z,980.7
2023-02-23T23:26:21.334Z,980.6
2023-02-23T23:28:22.861Z,980.7
2023-02-23T23:30:25.078Z,980.7
2023-02-23T23:32:25.666Z,980.7
2023-02-23T23:34:27.057Z,980.7
2023-02-23T23:36:28.514Z,980.7
2023-02-23T23:38:30.157Z,980.7
2023-02-23T23:40:31.509Z,980.7
2023-02-23T23:42:33.242Z,980.8
2023-02-23T23:44:34.254Z,980.6
2023-02-23T23:46:35.516Z,980.6
2023-02-23T23:48:37.349Z,980.7
2023-02-23T23:50:39.160Z,980.7
2023-02-23T23:52:40.759Z,980.6
2023-02-23T23:54:42.184Z,980.7
2023-02-23T23:56:43.331Z,980.5
2023-02-23T23:58:45.141Z,980.6
